Cottage Grove, OR

8:30 AM PST on March 06, 2015 (GMT -0800)
Wilson Creek | Change Station
CLOSE
Current Station
Personal Weather Station
Location: Cottage Grove, OR
Elevation: 1020 ft
Nearby Weather Stations

Elev 1020 ft 43.69 °N, 123.05 °W | Updated 7 seconds ago

Partly Cloudy
Partly Cloudy
40.1 °F
Feels Like 40 °F
N
0.0
Wind Variable Wind from North
Gusts 1.3 mph

Today
High -- | Low -- °F
--% Chance of Precip.
Yesterday
High -- | Low -- °F
Precip. -- in
6:40 AM 6:07 PM
Full, 99% visible
Pressure 30.41 in
Visibility 1.0 miles
Clouds Mostly Cloudy 200 ft
Mostly Cloudy 25000 ft
Windchill 40 °F
Dew Point 40 °F
Humidity 98%
Rainfall in
Snow Depth Not available.
UV 0.0 out of 12
Pollen 4.30 out of 12
Air Quality Not available.
Flu Activity Not available.
SPECI KEUG 061625Z 00000KT 1SM R16R/P6000FT BR BKN002 BKN250 03/03 A3041 RMK AO2 T00330028

More Conditions Fewer Conditions

Pressure 30.41 in
Visibility 1.0 miles
Clouds Mostly Cloudy 200 ft
Mostly Cloudy 25000 ft
Windchill 40 °F
Dew Point 40 °F
Humidity 98%
Rainfall in
Snow Depth Not available.
UV 0.0 out of 12
Pollen 4.30 out of 12
Air Quality Not available.
Flu Activity Not available.
SPECI KEUG 061625Z 00000KT 1SM R16R/P6000FT BR BKN002 BKN250 03/03 A3041 RMK AO2 T00330028

More Conditions Fewer Conditions

10-Day Weather Forecast

Almanac

Astronomy

Mar. 06, 2015 Rise Set
Actual Time
Civil Twilight
Nautical Twilight
Astronomical Twilight
Moon
Length of Visible Light
Length of Day
Tomorrow will be .
, % of the Moon is Illuminated

Today's Extremes

State Highs State Lows

Community

WunderPhotos

Upload Photos

1,803,334 photos uploaded!

WunderBlogs® & News

Nearby

Air Quality

  Air Quality AQ Index Pollutant
Not available.

Snow Depth

Station Depth Elevation

Earthquake Activity

City Distance Mag. Time & Date
Minimum magnitude displayed is 2.5.

Coastal Water Temperatures

Place Temperature

Nearby Weather Stations